Time;durP1;ratioP1;P1;durP2;ratioP2;P2;SDS_P1;SDS_P2;PMS_P1;PMS_P2;Temp;Humidity;BMP_temperature;BMP_pressure;BME280_temperature;BME280_humidity;BME280_pressure;Samples;Min_cycle;Max_cycle;Signal;HPM_P1;HPM_P2
2020/12/21 00:01:40;;;;;;;19.83;8.00;;;16.30;44.40;;;;;;5037045;28;20438;-86
2020/12/21 00:04:08;;;;;;;18.80;10.23;;;16.20;44.20;;;;;;5036478;28;20884;-86
2020/12/21 00:06:34;;;;;;;16.70;9.63;;;16.40;44.00;;;;;;5037357;28;20472;-86
2020/12/21 00:09:02;;;;;;;18.90;10.30;;;16.60;43.50;;;;;;5037448;28;20454;-86
2020/12/21 00:11:35;;;;;;;17.83;8.73;;;16.40;43.80;;;;;;5037737;28;20456;-86
2020/12/21 00:14:03;;;;;;;12.60;7.30;;;16.40;43.80;;;;;;5037627;28;20436;-86
2020/12/21 00:16:37;;;;;;;17.07;8.43;;;16.50;44.00;;;;;;5037176;28;20498;-86
2020/12/21 00:19:04;;;;;;;12.70;7.90;;;16.50;43.60;;;;;;5036327;28;20848;-86
2020/12/21 00:21:31;;;;;;;16.27;7.77;;;16.50;43.50;;;;;;5037569;28;20454;-86
2020/12/21 00:23:57;;;;;;;17.27;9.17;;;16.20;43.70;;;;;;5037526;28;20486;-85
2020/12/21 00:26:24;;;;;;;9.40;6.77;;;16.00;43.80;;;;;;5038381;28;20467;-86
2020/12/21 00:28:50;;;;;;;12.40;7.43;;;16.00;44.30;;;;;;5037076;28;20788;-86
2020/12/21 00:31:25;;;;;;;9.40;5.87;;;16.10;43.90;;;;;;5036817;28;20433;-85
2020/12/21 00:33:52;;;;;;;9.70;6.50;;;15.90;42.90;;;;;;5037142;28;20767;-85
2020/12/21 00:36:19;;;;;;;8.07;5.83;;;15.80;44.20;;;;;;5037422;28;20507;-85
2020/12/21 00:38:47;;;;;;;15.80;7.13;;;15.60;44.20;;;;;;5038392;28;20495;-85
2020/12/21 00:41:14;;;;;;;9.90;6.63;;;15.60;44.10;;;;;;5037707;28;20434;-85
2020/12/21 00:43:41;;;;;;;9.80;6.97;;;15.60;44.40;;;;;;5037200;28;20454;-85
2020/12/21 00:46:12;;;;;;;7.90;5.90;;;15.50;44.80;;;;;;5047929;28;20476;-85
2020/12/21 00:48:39;;;;;;;8.30;5.90;;;14.90;45.60;;;;;;5048731;28;20873;-86
2020/12/21 00:51:06;;;;;;;10.80;6.90;;;15.10;44.60;;;;;;5050637;28;20430;-85
2020/12/21 00:53:33;;;;;;;10.50;5.90;;;14.30;45.80;;;;;;5038876;28;20476;-85
2020/12/21 00:56:02;;;;;;;9.17;6.30;;;14.30;46.50;;;;;;5036639;28;20477;-85
2020/12/21 00:58:29;;;;;;;9.10;6.03;;;14.10;47.60;;;;;;5037837;28;20464;-85
2020/12/21 01:00:55;;;;;;;9.47;6.20;;;14.10;46.80;;;;;;5036769;28;20464;-85
2020/12/21 01:03:22;;;;;;;8.30;5.90;;;13.50;47.60;;;;;;5037752;28;20448;-85
2020/12/21 01:05:48;;;;;;;10.80;6.50;;;13.10;48.40;;;;;;5039764;28;20531;-86
2020/12/21 01:08:15;;;;;;;16.63;6.40;;;12.80;50.30;;;;;;5037375;28;20448;-85
2020/12/21 01:10:41;;;;;;;9.47;6.03;;;13.40;49.60;;;;;;5035538;28;20942;-85
2020/12/21 01:13:09;;;;;;;11.10;5.43;;;14.10;49.30;;;;;;5035811;28;20457;-85
2020/12/21 01:15:35;;;;;;;8.97;6.03;;;14.70;47.60;;;;;;5036541;28;20449;-86
2020/12/21 01:18:02;;;;;;;9.43;5.57;;;15.10;46.80;;;;;;5038874;28;20811;-85
2020/12/21 01:20:28;;;;;;;6.80;6.00;;;15.30;46.30;;;;;;5037179;28;20457;-86
2020/12/21 01:22:55;;;;;;;7.60;5.70;;;15.40;45.80;;;;;;5036498;28;20441;-85
2020/12/21 01:25:22;;;;;;;8.60;5.60;;;15.30;45.80;;;;;;5037106;28;20503;-85
2020/12/21 01:27:48;;;;;;;10.23;5.33;;;15.60;46.00;;;;;;5036196;28;20437;-85
2020/12/21 01:30:15;;;;;;;6.60;4.43;;;15.60;45.90;;;;;;5036273;28;20446;-85
2020/12/21 01:32:45;;;;;;;7.50;5.20;;;15.70;45.40;;;;;;5036517;28;20437;-85
2020/12/21 01:35:11;;;;;;;6.63;5.30;;;15.60;45.30;;;;;;5037262;28;20858;-85
2020/12/21 01:37:38;;;;;;;7.00;5.20;;;15.30;45.50;;;;;;5036159;28;20495;-85
2020/12/21 01:40:06;;;;;;;8.33;5.67;;;15.40;45.40;;;;;;5036081;28;20524;-85
2020/12/21 01:42:32;;;;;;;7.90;5.90;;;15.30;45.10;;;;;;5037128;28;20445;-85
2020/12/21 01:44:59;;;;;;;7.97;4.80;;;15.30;45.80;;;;;;5037143;28;20481;-86
2020/12/21 01:47:27;;;;;;;8.90;6.10;;;15.40;45.80;;;;;;5037354;28;20460;-86
2020/12/21 01:49:54;;;;;;;10.00;6.50;;;15.40;44.90;;;;;;5036270;28;20484;-85
2020/12/21 01:52:20;;;;;;;6.03;5.10;;;15.10;44.40;;;;;;5037014;28;20507;-86
2020/12/21 01:54:48;;;;;;;8.00;5.63;;;14.90;45.60;;;;;;5037026;28;20449;-85
2020/12/21 01:57:15;;;;;;;5.80;4.83;;;15.20;45.90;;;;;;5077554;22;21007;-89
2020/12/21 01:59:42;;;;;;;10.03;5.60;;;15.40;46.10;;;;;;5088457;28;20419;-92
2020/12/21 02:02:09;;;;;;;9.50;6.03;;;15.40;45.30;;;;;;5101701;28;20453;-92
2020/12/21 02:04:36;;;;;;;8.23;5.40;;;15.10;43.80;;;;;;5100960;28;20501;-90
2020/12/21 02:07:03;;;;;;;7.70;5.80;;;14.70;44.60;;;;;;5101244;28;20459;-91
2020/12/21 02:09:30;;;;;;;5.50;4.77;;;14.40;45.30;;;;;;5085257;28;20911;-88
2020/12/21 02:11:56;;;;;;;9.80;5.10;;;14.00;46.00;;;;;;5076805;28;20447;-88
2020/12/21 02:14:23;;;;;;;7.30;5.80;;;13.90;47.30;;;;;;5076536;28;20454;-88
2020/12/21 02:16:49;;;;;;;7.07;5.17;;;14.10;47.60;;;;;;5076404;28;20467;-86
2020/12/21 02:19:18;;;;;;;7.50;5.10;;;14.40;47.30;;;;;;5076473;28;20785;-86
2020/12/21 02:21:45;;;;;;;7.90;5.67;;;14.70;47.20;;;;;;5076253;28;20460;-86
2020/12/21 02:24:12;;;;;;;7.20;4.90;;;14.90;47.00;;;;;;5076529;28;20548;-86
2020/12/21 02:26:38;;;;;;;9.20;5.93;;;15.00;46.80;;;;;;5076095;28;20466;-86
2020/12/21 02:29:05;;;;;;;6.50;4.83;;;15.20;46.30;;;;;;5075948;28;20451;-86
2020/12/21 02:31:31;;;;;;;6.97;5.37;;;15.20;46.10;;;;;;5076194;28;20454;-86
2020/12/21 02:33:58;;;;;;;4.93;4.53;;;15.20;45.90;;;;;;5076399;28;20470;-86
2020/12/21 02:36:25;;;;;;;12.13;5.70;;;15.00;46.10;;;;;;5077803;28;20478;-86
2020/12/21 02:38:52;;;;;;;9.03;5.17;;;15.10;46.20;;;;;;5078128;28;20458;-85
2020/12/21 02:41:19;;;;;;;7.10;4.53;;;15.10;46.70;;;;;;5076858;28;20443;-86
2020/12/21 02:43:46;;;;;;;6.97;4.60;;;15.30;46.00;;;;;;5078385;28;20444;-86
2020/12/21 02:46:14;;;;;;;8.43;4.80;;;15.70;45.50;;;;;;5079453;28;20452;-86
2020/12/21 02:48:41;;;;;;;9.30;4.90;;;15.40;45.80;;;;;;5079968;28;20435;-86
2020/12/21 02:51:07;;;;;;;6.17;4.53;;;15.50;45.60;;;;;;5080548;28;20431;-86
2020/12/21 02:53:34;;;;;;;5.73;4.90;;;15.40;45.50;;;;;;5080056;28;20452;-86
2020/12/21 02:56:03;;;;;;;7.00;5.30;;;15.10;45.90;;;;;;5080253;28;20490;-86
2020/12/21 02:58:30;;;;;;;8.90;6.50;;;14.90;46.10;;;;;;5079863;28;20432;-86
2020/12/21 03:00:57;;;;;;;11.47;6.07;;;14.80;45.10;;;;;;5080185;28;20443;-87
2020/12/21 03:03:23;;;;;;;8.43;4.90;;;14.60;46.60;;;;;;5077642;28;20457;-86
2020/12/21 03:05:50;;;;;;;8.20;5.10;;;14.70;46.50;;;;;;5077498;28;20487;-87
2020/12/21 03:08:16;;;;;;;5.10;4.40;;;14.60;46.60;;;;;;5082271;28;20423;-88
2020/12/21 03:10:43;;;;;;;9.50;5.43;;;14.80;46.40;;;;;;5099589;28;20450;-88
2020/12/21 03:13:10;;;;;;;7.43;5.53;;;14.70;45.60;;;;;;5100274;28;20434;-89
2020/12/21 03:15:37;;;;;;;5.20;4.40;;;14.90;46.00;;;;;;5099894;28;20443;-87
2020/12/21 03:18:04;;;;;;;9.97;5.80;;;14.80;46.50;;;;;;5080499;28;20439;-86
2020/12/21 03:20:30;;;;;;;6.50;4.80;;;14.50;45.50;;;;;;5100191;28;20423;-88
2020/12/21 03:22:57;;;;;;;6.20;4.40;;;14.00;46.50;;;;;;5099993;28;20443;-88
2020/12/21 03:25:23;;;;;;;7.20;5.23;;;14.00;47.60;;;;;;5099907;28;20479;-89
2020/12/21 03:27:50;;;;;;;16.20;5.70;;;14.30;47.10;;;;;;5099997;28;20435;-88
2020/12/21 03:30:17;;;;;;;5.83;4.50;;;14.30;46.70;;;;;;5079027;28;20435;-86
2020/12/21 03:32:44;;;;;;;9.90;5.00;;;14.60;46.70;;;;;;5074980;28;20968;-87
2020/12/21 03:35:10;;;;;;;6.33;4.43;;;14.90;46.10;;;;;;5075088;28;20804;-87
2020/12/21 03:37:37;;;;;;;6.60;4.53;;;15.10;45.80;;;;;;5075090;28;20456;-87
2020/12/21 03:40:05;;;;;;;6.77;5.50;;;15.20;45.80;;;;;;5074967;28;20952;-87
2020/12/21 03:42:33;;;;;;;6.10;5.13;;;14.90;45.60;;;;;;5075380;28;20451;-87
2020/12/21 03:44:59;;;;;;;8.23;5.60;;;14.90;46.20;;;;;;5075044;28;20986;-87
2020/12/21 03:47:27;;;;;;;5.87;5.10;;;14.70;43.20;;;;;;5074724;28;20471;-87
2020/12/21 03:49:53;;;;;;;5.20;4.37;;;14.70;45.90;;;;;;5074920;28;20459;-87
2020/12/21 03:52:19;;;;;;;5.23;3.93;;;14.80;45.70;;;;;;5074828;28;20935;-87
2020/12/21 03:54:46;;;;;;;5.97;4.47;;;14.70;46.00;;;;;;5074949;28;20555;-87
2020/12/21 03:57:13;;;;;;;5.23;4.43;;;14.80;45.60;;;;;;5074653;28;20475;-86
2020/12/21 03:59:39;;;;;;;5.80;4.50;;;14.70;45.50;;;;;;5074941;28;20459;-87
2020/12/21 04:02:05;;;;;;;5.33;4.20;;;14.50;45.90;;;;;;5075529;28;20501;-87
2020/12/21 04:04:33;;;;;;;6.13;4.20;;;14.50;47.00;;;;;;5076112;28;20491;-87
2020/12/21 04:06:59;;;;;;;6.20;4.40;;;14.60;45.80;;;;;;5074854;28;20447;-87
2020/12/21 04:09:26;;;;;;;5.90;4.43;;;14.50;46.10;;;;;;5075163;28;20542;-88
2020/12/21 04:11:52;;;;;;;7.80;4.00;;;14.20;45.80;;;;;;5080533;28;20561;-88
2020/12/21 04:14:19;;;;;;;5.30;4.10;;;14.00;45.80;;;;;;5081584;28;20436;-88
2020/12/21 04:16:45;;;;;;;7.07;4.73;;;14.10;46.30;;;;;;5074633;28;20466;-89
2020/12/21 04:19:11;;;;;;;5.80;4.57;;;13.90;46.10;;;;;;5074740;28;20484;-88
2020/12/21 04:21:39;;;;;;;6.13;4.33;;;13.80;46.60;;;;;;5072995;28;20451;-88
2020/12/21 04:24:05;;;;;;;8.57;4.80;;;14.00;47.10;;;;;;5074260;28;20447;-88
2020/12/21 04:26:32;;;;;;;6.17;3.80;;;14.00;46.00;;;;;;5074186;28;20975;-88
2020/12/21 04:28:58;;;;;;;8.47;4.97;;;13.90;46.60;;;;;;5074247;28;20943;-88
2020/12/21 04:31:25;;;;;;;6.20;4.80;;;13.90;46.40;;;;;;5073908;28;20813;-88
2020/12/21 04:33:51;;;;;;;7.17;5.87;;;13.90;47.30;;;;;;5075111;28;20447;-88
2020/12/21 04:36:17;;;;;;;7.40;5.40;;;13.60;45.60;;;;;;5074288;28;20471;-88
2020/12/21 04:38:45;;;;;;;6.33;4.80;;;13.40;47.30;;;;;;5074672;28;20451;-88
2020/12/21 04:41:12;;;;;;;7.07;5.03;;;13.40;46.40;;;;;;5078282;28;20929;-88
2020/12/21 04:43:39;;;;;;;15.73;5.57;;;12.90;47.90;;;;;;5074323;28;20446;-88
2020/12/21 04:46:08;;;;;;;5.73;5.10;;;12.60;48.30;;;;;;5073752;28;20479;-88
2020/12/21 04:48:38;;;;;;;8.70;5.33;;;12.40;46.90;;;;;;5073970;28;20442;-88
2020/12/21 04:51:05;;;;;;;5.43;4.40;;;12.10;45.20;;;;;;5082701;28;20410;-88
2020/12/21 04:53:32;;;;;;;10.33;6.60;;;12.10;50.10;;;;;;5077877;28;20450;-88
2020/12/21 04:56:01;;;;;;;8.50;5.27;;;12.00;46.50;;;;;;5073969;28;20475;-88
2020/12/21 04:58:27;;;;;;;5.37;4.37;;;11.90;49.40;;;;;;5073271;28;20946;-88
2020/12/21 05:00:54;;;;;;;5.67;4.57;;;12.20;49.10;;;;;;5074124;28;20932;-88
2020/12/21 05:03:20;;;;;;;4.70;4.17;;;12.60;48.90;;;;;;5073603;28;20507;-88
2020/12/21 05:05:47;;;;;;;9.67;4.30;;;12.80;48.90;;;;;;5075369;28;20478;-88
2020/12/21 05:08:15;;;;;;;8.67;4.57;;;13.00;47.60;;;;;;5074312;28;20434;-88
2020/12/21 05:10:43;;;;;;;7.80;4.73;;;12.90;47.70;;;;;;5074213;28;20784;-88
2020/12/21 05:13:11;;;;;;;7.70;4.47;;;12.80;47.90;;;;;;5074030;28;20478;-88
2020/12/21 05:15:38;;;;;;;7.43;5.50;;;12.90;47.80;;;;;;5073291;28;20545;-88
2020/12/21 05:18:06;;;;;;;8.37;4.90;;;13.10;46.60;;;;;;5074121;28;20455;-88
2020/12/21 05:20:33;;;;;;;11.93;5.87;;;13.10;47.90;;;;;;5073972;28;20536;-87
2020/12/21 05:23:00;;;;;;;7.10;5.00;;;13.20;46.80;;;;;;5073116;28;20449;-87
2020/12/21 05:25:26;;;;;;;6.33;4.00;;;13.20;47.70;;;;;;5073199;28;21037;-88
2020/12/21 05:27:53;;;;;;;7.27;4.50;;;13.80;47.20;;;;;;5073337;28;20439;-88
2020/12/21 05:30:20;;;;;;;7.37;4.90;;;14.00;46.60;;;;;;5072908;28;20874;-88
2020/12/21 05:32:47;;;;;;;7.50;4.87;;;14.10;46.60;;;;;;5072589;28;20788;-88
2020/12/21 05:35:15;;;;;;;9.03;5.03;;;14.20;46.80;;;;;;5072958;28;20443;-88
2020/12/21 05:37:42;;;;;;;10.33;6.43;;;14.10;46.30;;;;;;5072540;28;20447;-88
2020/12/21 05:40:09;;;;;;;6.53;4.50;;;14.00;45.30;;;;;;5073162;28;20513;-88
2020/12/21 05:42:36;;;;;;;6.13;4.67;;;14.20;46.40;;;;;;5073270;28;20482;-88
2020/12/21 05:45:07;;;;;;;7.30;4.67;;;14.30;46.40;;;;;;5073807;28;20490;-88
2020/12/21 05:47:35;;;;;;;4.80;4.10;;;14.20;46.40;;;;;;5072841;28;20516;-88
2020/12/21 05:50:05;;;;;;;6.17;4.80;;;14.30;46.00;;;;;;5073015;28;20521;-88
2020/12/21 05:52:34;;;;;;;5.30;4.07;;;14.20;45.60;;;;;;5072472;28;20431;-88
2020/12/21 05:55:08;;;;;;;5.13;4.40;;;14.10;45.80;;;;;;5072954;28;20435;-88
2020/12/21 05:57:36;;;;;;;7.70;5.00;;;14.00;46.20;;;;;;5072659;28;20836;-88
2020/12/21 06:00:06;;;;;;;6.13;4.93;;;13.90;45.70;;;;;;5073065;28;20442;-88
2020/12/21 06:02:33;;;;;;;7.00;5.10;;;13.70;45.10;;;;;;5072810;28;20466;-88
2020/12/21 06:05:02;;;;;;;6.20;4.60;;;13.30;46.00;;;;;;5072507;28;20912;-88
2020/12/21 06:07:31;;;;;;;5.70;4.53;;;13.40;46.50;;;;;;5072280;28;20489;-88
2020/12/21 06:09:59;;;;;;;8.03;5.13;;;13.50;46.50;;;;;;5072413;28;20467;-88
2020/12/21 06:12:27;;;;;;;6.40;4.60;;;13.60;45.90;;;;;;5072553;28;20502;-87
2020/12/21 06:15:00;;;;;;;4.90;4.20;;;13.40;44.80;;;;;;5072373;28;20442;-88
2020/12/21 06:17:28;;;;;;;5.53;4.47;;;13.10;45.40;;;;;;5072597;28;20468;-87
2020/12/21 06:20:04;;;;;;;6.67;5.03;;;12.90;46.10;;;;;;5073172;28;20443;-87
2020/12/21 06:22:30;;;;;;;5.90;4.50;;;12.20;43.90;;;;;;5073275;28;20446;-87
2020/12/21 06:24:57;;;;;;;6.00;4.57;;;10.60;45.70;;;;;;5075282;28;20536;-87
2020/12/21 06:27:23;;;;;;;3.97;3.83;;;10.10;49.60;;;;;;5077619;28;20464;-87
2020/12/21 06:29:59;;;;;;;7.10;5.03;;;10.80;49.30;;;;;;5073965;28;20455;-88
2020/12/21 06:32:30;;;;;;;10.13;5.23;;;11.20;45.90;;;;;;5072943;28;20928;-88
2020/12/21 06:34:57;;;;;;;6.43;5.00;;;10.70;46.00;;;;;;5072575;28;20463;-87
2020/12/21 06:37:24;;;;;;;5.23;4.40;;;10.00;47.30;;;;;;5072221;28;20469;-88
2020/12/21 06:40:02;;;;;;;8.07;6.00;;;9.10;49.80;;;;;;5072441;28;20453;-88
2020/12/21 06:42:28;;;;;;;8.70;5.37;;;8.40;50.80;;;;;;5072566;28;20916;-87
2020/12/21 06:44:57;;;;;;;6.43;4.93;;;8.80;54.00;;;;;;5073469;28;20479;-88
2020/12/21 06:47:24;;;;;;;8.90;5.97;;;10.20;52.70;;;;;;5075508;28;20475;-88
2020/12/21 06:49:51;;;;;;;7.20;4.50;;;10.90;50.10;;;;;;5075693;28;20447;-88
2020/12/21 06:52:18;;;;;;;10.13;5.40;;;11.50;50.90;;;;;;5075643;28;20453;-88
2020/12/21 06:54:46;;;;;;;8.57;6.10;;;12.30;49.70;;;;;;5075851;28;20447;-88
2020/12/21 06:57:13;;;;;;;12.37;4.53;;;12.50;47.20;;;;;;5075132;28;20486;-88
2020/12/21 06:59:39;;;;;;;4.60;4.27;;;12.40;48.10;;;;;;5075445;28;20448;-88
2020/12/21 07:02:06;;;;;;;7.00;5.20;;;12.70;48.10;;;;;;5075708;28;20455;-88
2020/12/21 07:04:33;;;;;;;11.80;4.80;;;12.90;48.00;;;;;;5075900;28;20478;-88
2020/12/21 07:07:04;;;;;;;6.63;4.07;;;12.80;47.40;;;;;;5075826;28;20473;-87
2020/12/21 07:09:32;;;;;;;5.47;4.30;;;12.70;47.70;;;;;;5076019;28;20769;-88
2020/12/21 07:12:01;;;;;;;5.10;4.37;;;12.90;47.60;;;;;;5075544;28;20794;-87
2020/12/21 07:14:28;;;;;;;6.23;4.60;;;13.30;46.70;;;;;;5075439;28;20750;-88
2020/12/21 07:17:05;;;;;;;6.53;4.90;;;13.30;47.00;;;;;;5075362;28;20870;-88
2020/12/21 07:19:33;;;;;;;10.00;6.77;;;13.30;46.60;;;;;;5075611;28;20898;-88
2020/12/21 07:21:59;;;;;;;6.70;5.37;;;13.00;43.20;;;;;;5074991;28;20513;-88
2020/12/21 07:24:26;;;;;;;7.77;5.70;;;12.30;46.70;;;;;;5075122;28;20463;-88
2020/12/21 07:26:53;;;;;;;137.00;47.17;;;12.20;44.60;;;;;;5075171;28;20882;-87
2020/12/21 07:29:20;;;;;;;26.47;12.77;;;11.20;44.60;;;;;;5075604;28;20480;-88
2020/12/21 07:31:47;;;;;;;16.27;8.23;;;10.60;44.80;;;;;;5075424;28;20442;-87
2020/12/21 07:34:15;;;;;;;22.10;9.87;;;10.30;47.00;;;;;;5075336;28;20447;-88
2020/12/21 07:36:41;;;;;;;12.00;7.33;;;10.60;49.20;;;;;;5075256;28;20452;-87
2020/12/21 07:39:10;;;;;;;13.53;6.90;;;10.90;48.30;;;;;;5075250;28;20449;-87
2020/12/21 07:41:38;;;;;;;11.87;6.63;;;11.20;49.90;;;;;;5075167;28;20447;-87
2020/12/21 07:44:08;;;;;;;11.73;6.43;;;11.70;47.80;;;;;;5075612;28;20448;-88
2020/12/21 07:46:51;;;;;;;11.03;6.70;;;12.20;48.90;;;;;;5075770;28;20540;-88
2020/12/21 07:49:18;;;;;;;12.13;7.47;;;12.30;44.70;;;;;;5075602;28;20411;-88
2020/12/21 07:51:45;;;;;;;15.30;8.93;;;11.80;44.70;;;;;;5076203;28;20433;-88
2020/12/21 07:54:13;;;;;;;14.70;7.87;;;10.80;45.00;;;;;;5078349;28;20447;-88
2020/12/21 07:56:40;;;;;;;18.27;8.20;;;10.70;50.20;;;;;;5078223;22;20525;-85
2020/12/21 07:59:16;;;;;;;16.33;9.83;;;11.20;49.60;;;;;;5042302;28;20483;-85
2020/12/21 08:01:46;;;;;;;12.47;8.00;;;11.30;49.50;;;;;;5042935;28;20436;-85
2020/12/21 08:04:15;;;;;;;34.50;7.77;;;11.80;48.70;;;;;;5042619;28;20437;-85
2020/12/21 08:06:42;;;;;;;18.57;7.47;;;12.00;47.30;;;;;;5043572;28;20462;-85
2020/12/21 08:09:09;;;;;;;40.00;8.30;;;11.80;45.80;;;;;;5043444;28;20965;-85
2020/12/21 08:11:37;;;;;;;46.03;7.50;;;11.50;46.70;;;;;;5041883;28;21022;-85
2020/12/21 08:14:04;;;;;;;36.97;8.63;;;11.60;47.40;;;;;;5041503;28;20482;-85
2020/12/21 08:16:31;;;;;;;30.50;7.37;;;11.70;47.40;;;;;;5042159;28;21043;-85
2020/12/21 08:18:59;;;;;;;69.93;7.60;;;11.80;47.80;;;;;;5041713;28;20449;-85
2020/12/21 08:21:26;;;;;;;32.97;6.87;;;11.20;43.10;;;;;;5041920;28;20619;-85
2020/12/21 08:23:53;;;;;;;54.90;7.43;;;11.10;47.90;;;;;;5041443;28;20792;-84
2020/12/21 08:26:21;;;;;;;12.50;6.47;;;11.60;47.60;;;;;;5040221;28;20495;-85
2020/12/21 08:28:49;;;;;;;8.77;6.33;;;11.50;45.90;;;;;;5039696;28;20449;-85
2020/12/21 08:31:18;;;;;;;9.70;6.60;;;11.90;46.90;;;;;;5041494;28;20465;-85
2020/12/21 08:34:01;;;;;;;6.83;5.30;;;11.80;44.20;;;;;;5043434;28;20452;-85
2020/12/21 08:36:30;;;;;;;8.60;6.37;;;12.10;48.20;;;;;;5048035;28;20469;-85
2020/12/21 08:39:09;;;;;;;7.03;5.70;;;12.10;45.60;;;;;;5051948;28;20452;-84
2020/12/21 08:41:41;;;;;;;8.50;6.97;;;12.40;46.70;;;;;;5051169;28;20449;-84
2020/12/21 08:44:13;;;;;;;8.37;6.63;;;12.40;46.20;;;;;;5049560;28;20463;-84
2020/12/21 08:46:44;;;;;;;9.03;6.90;;;12.40;43.80;;;;;;5043382;28;20494;-84
2020/12/21 08:49:12;;;;;;;13.97;9.03;;;12.40;44.80;;;;;;5040315;28;20417;-85
2020/12/21 08:51:38;;;;;;;14.30;8.93;;;11.60;43.40;;;;;;5042300;28;20437;-85
2020/12/21 08:54:05;;;;;;;13.87;8.70;;;11.10;44.30;;;;;;5039058;28;20523;-85
2020/12/21 08:56:31;;;;;;;12.83;8.80;;;11.10;47.20;;;;;;5038693;28;20480;-86
2020/12/21 08:58:58;;;;;;;14.63;9.07;;;11.60;46.30;;;;;;5037664;28;20464;-86
2020/12/21 09:01:24;;;;;;;13.07;8.87;;;11.80;45.70;;;;;;5037451;28;20445;-85
2020/12/21 09:03:51;;;;;;;12.70;7.50;;;12.20;46.80;;;;;;5036627;28;20473;-85
2020/12/21 09:06:19;;;;;;;8.20;6.10;;;12.30;45.30;;;;;;5037207;28;20489;-85
2020/12/21 09:08:46;;;;;;;10.90;7.57;;;12.60;46.00;;;;;;5037449;28;20446;-85
2020/12/21 09:11:12;;;;;;;12.87;8.33;;;12.10;44.20;;;;;;5038601;28;20454;-85
2020/12/21 09:13:41;;;;;;;9.90;6.80;;;12.40;45.80;;;;;;5045061;28;20417;-84
2020/12/21 09:16:08;;;;;;;11.23;6.90;;;12.40;45.30;;;;;;5039343;28;20854;-85
2020/12/21 09:18:35;;;;;;;11.40;7.50;;;12.00;44.60;;;;;;5036203;28;20516;-85
2020/12/21 09:21:03;;;;;;;8.63;6.80;;;11.30;45.10;;;;;;5037234;28;20873;-85
2020/12/21 09:23:30;;;;;;;8.83;6.50;;;10.10;46.80;;;;;;5036451;28;20487;-84
2020/12/21 09:25:57;;;;;;;11.80;8.30;;;9.40;50.00;;;;;;5036316;28;20486;-84
2020/12/21 09:28:24;;;;;;;12.57;8.83;;;9.30;50.60;;;;;;5036884;28;20438;-84
2020/12/21 09:30:50;;;;;;;12.63;8.53;;;9.50;50.40;;;;;;5038572;28;20445;-84
2020/12/21 09:33:17;;;;;;;13.40;8.90;;;9.40;50.90;;;;;;5038140;28;20508;-85
2020/12/21 09:35:43;;;;;;;9.63;7.00;;;9.80;51.20;;;;;;5037339;28;20449;-84
2020/12/21 09:38:09;;;;;;;11.13;8.10;;;9.90;52.60;;;;;;5037701;28;20453;-84
2020/12/21 09:40:37;;;;;;;9.80;7.70;;;9.80;51.10;;;;;;5037231;28;20503;-84
2020/12/21 09:43:03;;;;;;;9.50;7.50;;;10.10;49.60;;;;;;5039897;28;20460;-84
2020/12/21 09:45:30;;;;;;;12.20;8.90;;;10.20;50.10;;;;;;5045805;28;20484;-84
2020/12/21 09:47:56;;;;;;;13.07;7.97;;;9.60;50.20;;;;;;5044418;28;20446;-84
2020/12/21 09:50:23;;;;;;;16.10;9.13;;;9.40;53.00;;;;;;5039754;28;20445;-84
2020/12/21 09:52:49;;;;;;;15.20;8.20;;;9.30;51.90;;;;;;5039641;28;20465;-84
2020/12/21 09:55:16;;;;;;;11.60;8.10;;;9.30;52.80;;;;;;5038372;28;20434;-84
2020/12/21 09:57:43;;;;;;;10.27;7.73;;;9.60;51.90;;;;;;5040310;28;20468;-85
2020/12/21 10:00:10;;;;;;;11.47;7.70;;;10.60;50.10;;;;;;5043311;28;20445;-84
2020/12/21 10:02:36;;;;;;;7.77;6.17;;;11.00;48.70;;;;;;5040130;28;20449;-84
2020/12/21 10:05:03;;;;;;;8.03;6.43;;;11.50;49.10;;;;;;5040244;28;20482;-85
2020/12/21 10:07:29;;;;;;;12.13;8.67;;;12.20;48.30;;;;;;5041664;28;20469;-85
2020/12/21 10:09:56;;;;;;;10.53;7.57;;;12.20;45.50;;;;;;5042564;28;20495;-85
2020/12/21 10:12:22;;;;;;;11.07;7.37;;;11.10;46.50;;;;;;5039021;28;20430;-85
2020/12/21 10:14:50;;;;;;;13.23;7.43;;;10.40;49.90;;;;;;5042491;28;20453;-85
2020/12/21 10:17:16;;;;;;;10.80;7.50;;;10.30;49.80;;;;;;5046317;28;20468;-85
2020/12/21 10:19:43;;;;;;;11.50;7.27;;;10.60;49.20;;;;;;5048572;28;20452;-85
2020/12/21 10:22:09;;;;;;;14.40;7.70;;;11.00;48.40;;;;;;5049992;28;20437;-85
2020/12/21 10:24:37;;;;;;;9.37;7.13;;;11.50;48.60;;;;;;5049349;28;20448;-84
2020/12/21 10:27:03;;;;;;;11.33;8.23;;;11.40;46.60;;;;;;5049961;28;20445;-84
2020/12/21 10:29:30;;;;;;;10.33;8.17;;;10.70;48.80;;;;;;5040857;28;20454;-84
2020/12/21 10:31:58;;;;;;;10.67;7.27;;;10.70;49.00;;;;;;5040105;28;20448;-85
2020/12/21 10:34:25;;;;;;;16.50;8.33;;;11.10;49.00;;;;;;5039556;28;20898;-85
2020/12/21 10:36:52;;;;;;;11.73;9.07;;;11.50;47.90;;;;;;5040967;28;20839;-85
2020/12/21 10:39:19;;;;;;;17.10;9.60;;;11.40;49.10;;;;;;5040024;28;20432;-85
2020/12/21 10:41:46;;;;;;;15.00;8.93;;;11.50;48.30;;;;;;5039623;28;20468;-85
2020/12/21 10:44:13;;;;;;;11.80;7.80;;;11.50;48.50;;;;;;5038914;28;20942;-85
2020/12/21 10:46:39;;;;;;;12.17;8.23;;;11.70;47.90;;;;;;5038750;28;21007;-85
2020/12/21 10:49:07;;;;;;;14.80;7.73;;;11.60;48.60;;;;;;5039649;28;20439;-85
2020/12/21 10:51:34;;;;;;;11.57;7.90;;;11.20;49.70;;;;;;5039623;28;20817;-85
2020/12/21 10:54:02;;;;;;;12.77;8.07;;;11.20;49.70;;;;;;5039712;28;20527;-84
2020/12/21 10:56:29;;;;;;;11.97;7.00;;;11.30;49.60;;;;;;5038668;28;20482;-84
2020/12/21 10:58:56;;;;;;;9.00;6.60;;;11.20;49.20;;;;;;5039626;28;20813;-84
2020/12/21 11:01:23;;;;;;;10.40;7.53;;;11.00;49.50;;;;;;5039460;28;20448;-84
2020/12/21 11:03:49;;;;;;;16.80;7.90;;;10.60;50.10;;;;;;5040936;28;20442;-84
2020/12/21 11:06:24;;;;;;;11.20;7.63;;;11.00;50.50;;;;;;5040518;28;20512;-85
2020/12/21 11:08:51;;;;;;;16.07;7.67;;;11.50;49.30;;;;;;5041135;28;20431;-85
2020/12/21 11:11:25;;;;;;;11.97;7.50;;;11.90;48.00;;;;;;5040147;28;20495;-85
2020/12/21 11:13:52;;;;;;;10.30;6.53;;;12.40;47.30;;;;;;5040285;28;20487;-85
2020/12/21 11:16:19;;;;;;;10.13;7.60;;;13.00;45.90;;;;;;5048804;28;20816;-85
2020/12/21 11:18:45;;;;;;;11.90;7.03;;;12.50;46.30;;;;;;5054753;28;20571;-85
2020/12/21 11:21:13;;;;;;;7.80;6.07;;;12.80;45.90;;;;;;5051725;28;20437;-85
2020/12/21 11:23:41;;;;;;;9.87;6.27;;;12.50;46.30;;;;;;5039596;28;20482;-85
2020/12/21 11:26:08;;;;;;;9.47;5.50;;;12.60;46.40;;;;;;5038805;28;20582;-85
2020/12/21 11:28:34;;;;;;;16.13;9.47;;;13.20;47.80;;;;;;5039781;28;20456;-85
2020/12/21 11:31:01;;;;;;;29.10;13.70;;;13.60;46.30;;;;;;5039256;28;20445;-85
2020/12/21 11:33:27;;;;;;;23.57;10.30;;;13.90;45.60;;;;;;5040564;28;20428;-85
2020/12/21 11:35:54;;;;;;;23.93;10.30;;;14.00;45.20;;;;;;5040362;28;20469;-85
2020/12/21 11:38:20;;;;;;;11.00;6.80;;;14.20;44.80;;;;;;5041995;28;20441;-85
2020/12/21 11:40:48;;;;;;;12.50;7.97;;;14.40;45.80;;;;;;5041081;28;20488;-85
2020/12/21 11:43:15;;;;;;;15.87;8.33;;;14.60;45.10;;;;;;5040055;28;20488;-85
2020/12/21 11:45:41;;;;;;;11.53;7.03;;;14.60;44.40;;;;;;5040394;28;20574;-85
2020/12/21 11:48:08;;;;;;;9.57;6.80;;;14.80;42.60;;;;;;5040163;28;20452;-85
2020/12/21 11:50:34;;;;;;;10.77;6.73;;;13.80;44.10;;;;;;5040062;28;20448;-85
2020/12/21 11:53:01;;;;;;;10.47;6.00;;;13.50;45.80;;;;;;5039604;28;20437;-84
2020/12/21 11:55:27;;;;;;;16.10;8.23;;;14.00;45.20;;;;;;5039414;28;20446;-84
2020/12/21 11:57:54;;;;;;;15.20;6.70;;;14.20;45.30;;;;;;5038590;28;20477;-85
2020/12/21 12:00:21;;;;;;;14.10;7.03;;;13.90;45.50;;;;;;5038376;28;20994;-85
2020/12/21 12:02:47;;;;;;;7.97;5.73;;;14.20;44.80;;;;;;5039405;28;20510;-86
2020/12/21 12:05:14;;;;;;;9.33;6.50;;;14.50;45.60;;;;;;5039225;28;20539;-85
2020/12/21 12:07:41;;;;;;;11.37;6.50;;;14.80;42.60;;;;;;5039144;28;20469;-85
2020/12/21 12:10:08;;;;;;;13.70;7.27;;;14.60;44.90;;;;;;5039151;28;20444;-85
2020/12/21 12:12:35;;;;;;;10.67;6.93;;;14.60;43.70;;;;;;5039909;28;20452;-84
2020/12/21 12:15:02;;;;;;;11.63;6.60;;;14.80;43.20;;;;;;5040252;28;21007;-84
2020/12/21 12:17:28;;;;;;;9.57;5.27;;;14.70;44.40;;;;;;5041419;28;20457;-85
2020/12/21 12:19:55;;;;;;;9.90;5.73;;;14.90;44.50;;;;;;5040371;28;20434;-85
2020/12/21 12:22:22;;;;;;;12.17;6.90;;;14.80;43.80;;;;;;5041452;28;20457;-85
2020/12/21 12:24:48;;;;;;;12.73;7.00;;;14.90;43.00;;;;;;5039887;28;20437;-85
2020/12/21 12:27:15;;;;;;;15.33;7.10;;;14.70;44.00;;;;;;5039067;28;20469;-85
2020/12/21 12:29:41;;;;;;;12.10;7.37;;;14.60;43.60;;;;;;5038773;28;20435;-85
2020/12/21 12:32:10;;;;;;;8.07;5.40;;;15.20;42.80;;;;;;5038961;28;20461;-85
2020/12/21 12:34:37;;;;;;;11.50;7.37;;;14.70;43.40;;;;;;5038557;28;20441;-85
2020/12/21 12:37:04;;;;;;;12.03;6.43;;;14.60;42.60;;;;;;5040740;28;20545;-85
2020/12/21 12:39:30;;;;;;;7.63;6.37;;;14.50;43.50;;;;;;5041776;28;20439;-85
2020/12/21 12:41:57;;;;;;;7.67;5.37;;;14.70;43.00;;;;;;5039212;28;20457;-85
2020/12/21 12:44:23;;;;;;;10.37;6.10;;;14.80;44.00;;;;;;5038699;28;20450;-85